Time;durP1;ratioP1;P1;durP2;ratioP2;P2;SDS_P1;SDS_P2;PMS_P1;PMS_P2;Temp;Humidity;BMP_temperature;BMP_pressure;BME280_temperature;BME280_humidity;BME280_pressure;Samples;Min_cycle;Max_cycle;Signal;HPM_P1;HPM_P2
2023/03/14 07:10:28;;;;;;;1.40;0.60;;;;;;;9.78;74.40;94633.81;2082747;28;20575;-62
2023/03/14 07:11:30;;;;;;;2.45;0.70;;;;;;;9.78;73.73;94638.22;2081709;28;20239;-63
2023/03/14 07:13:32;;;;;;;3.38;0.65;;;;;;;10.02;72.49;94621.69;2102216;27;20581;-63
2023/03/14 07:14:33;;;;;;;1.10;0.50;;;;;;;10.03;72.27;94633.78;2094648;28;20207;-63
2023/03/14 07:15:34;;;;;;;1.10;0.57;;;;;;;10.07;71.37;94625.63;2077503;28;20228;-63
2023/03/14 07:16:37;;;;;;;1.85;0.73;;;;;;;10.10;71.55;94633.22;2081088;28;20193;-62
2023/03/14 07:17:38;;;;;;;2.25;0.70;;;;;;;10.16;71.07;94626.72;2080947;28;20201;-62
2023/03/14 07:18:40;;;;;;;2.30;0.90;;;;;;;10.29;71.41;94637.88;2078775;28;20220;-63
2023/03/14 07:19:41;;;;;;;1.13;0.70;;;;;;;10.40;71.13;94628.47;2079491;28;20197;-63
2023/03/14 07:20:45;;;;;;;6.07;3.75;;;;;;;10.48;70.15;94641.75;2078362;28;20229;-62
2023/03/14 07:21:47;;;;;;;7.50;2.28;;;;;;;10.60;69.70;94638.19;2078544;28;20253;-63
2023/03/14 07:22:49;;;;;;;5.22;1.10;;;;;;;10.64;69.56;94641.41;2079201;28;20197;-62
2023/03/14 07:23:51;;;;;;;2.80;0.70;;;;;;;10.57;69.95;94643.63;2079232;28;20224;-63
2023/03/14 07:24:52;;;;;;;1.73;0.60;;;;;;;10.64;69.41;94640.56;2082608;28;20205;-63
2023/03/14 07:25:53;;;;;;;2.05;0.70;;;;;;;10.87;69.37;94641.38;2083200;28;20197;-63
2023/03/14 07:26:55;;;;;;;2.83;0.70;;;;;;;11.14;68.67;94641.03;2077283;28;20217;-63
2023/03/14 07:27:56;;;;;;;1.40;0.65;;;;;;;11.21;68.80;94650.03;2078738;28;20195;-64
2023/03/14 07:28:58;;;;;;;3.35;0.70;;;;;;;11.26;67.49;94641.81;2077236;28;20233;-63
2023/03/14 07:29:59;;;;;;;6.85;0.90;;;;;;;11.28;67.97;94642.53;2081279;28;20223;-63
2023/03/14 07:31:01;;;;;;;2.65;0.60;;;;;;;11.30;68.32;94648.50;2081607;28;20592;-63
2023/03/14 07:32:02;;;;;;;2.55;0.70;;;;;;;11.33;67.79;94648.22;2080906;28;20252;-63
2023/03/14 07:33:04;;;;;;;2.33;0.68;;;;;;;11.30;67.67;94650.25;2079482;28;20239;-63
2023/03/14 07:34:05;;;;;;;2.75;0.80;;;;;;;11.46;67.50;94628.97;2078935;28;20557;-63
2023/03/14 07:35:07;;;;;;;2.83;0.77;;;;;;;11.27;67.30;94652.19;2078060;28;20640;-63
2023/03/14 07:36:09;;;;;;;1.20;0.60;;;;;;;11.62;67.19;94637.22;2078298;28;20211;-63
2023/03/14 07:37:11;;;;;;;1.85;0.63;;;;;;;11.40;66.44;94659.03;2079728;28;20223;-63
2023/03/14 07:38:12;;;;;;;1.10;0.70;;;;;;;11.03;68.08;94646.25;2079583;28;20199;-63
2023/03/14 07:39:14;;;;;;;6.55;1.15;;;;;;;10.45;68.69;94653.25;2084653;28;20250;-62
2023/03/14 07:40:15;;;;;;;1.35;0.70;;;;;;;10.45;69.95;94655.84;2085177;28;20252;-62
2023/03/14 07:41:17;;;;;;;3.20;0.80;;;;;;;10.69;69.49;94646.25;2083885;28;20209;-62
2023/03/14 07:42:18;;;;;;;2.33;0.65;;;;;;;10.62;69.71;94664.19;2080420;28;20207;-63
2023/03/14 07:43:19;;;;;;;2.25;0.70;;;;;;;10.95;68.29;94657.31;2070019;28;20250;-63
2023/03/14 07:44:21;;;;;;;1.10;0.60;;;;;;;11.50;67.24;94646.88;2079006;28;20209;-63
2023/03/14 07:45:22;;;;;;;1.60;0.60;;;;;;;11.57;66.80;94668.97;2078537;28;20203;-63
2023/03/14 07:46:25;;;;;;;1.45;0.60;;;;;;;11.58;66.59;94662.78;2078627;28;20329;-63
2023/03/14 07:47:27;;;;;;;1.10;0.60;;;;;;;11.58;66.01;94657.56;2078974;28;20496;-63
2023/03/14 07:48:28;;;;;;;1.33;0.80;;;;;;;11.57;66.12;94663.72;2078442;28;20245;-62
2023/03/14 07:49:30;;;;;;;4.53;0.70;;;;;;;11.11;67.75;94659.56;2078407;28;20212;-62
2023/03/14 07:50:31;;;;;;;1.40;0.70;;;;;;;11.35;67.52;94653.31;2077954;28;20755;-62
2023/03/14 07:51:33;;;;;;;2.30;0.68;;;;;;;11.42;67.14;94668.41;2075613;28;20208;-62
2023/03/14 07:52:34;;;;;;;1.95;0.60;;;;;;;11.48;67.46;94659.25;2070750;28;20236;-63
2023/03/14 07:53:35;;;;;;;1.00;0.50;;;;;;;11.66;65.84;94648.28;2077656;28;20324;-62
2023/03/14 07:54:37;;;;;;;1.20;0.60;;;;;;;11.94;65.49;94654.69;2079522;28;20204;-63
2023/03/14 07:55:40;;;;;;;5.70;0.70;;;;;;;11.81;65.54;94667.09;2079507;28;20327;-63
2023/03/14 07:56:41;;;;;;;1.00;0.50;;;;;;;11.22;66.00;94650.88;2078162;28;20214;-63
2023/03/14 07:57:42;;;;;;;1.63;0.60;;;;;;;11.13;66.08;94659.44;2079205;28;20655;-63
2023/03/14 07:58:44;;;;;;;2.15;0.77;;;;;;;10.89;66.90;94650.78;2077367;28;20233;-64
2023/03/14 07:59:45;;;;;;;0.95;0.50;;;;;;;10.44;69.27;94658.59;2078950;28;20643;-64
2023/03/14 08:00:47;;;;;;;3.05;0.60;;;;;;;10.15;69.65;94671.19;2079431;28;20214;-64
2023/03/14 08:01:49;;;;;;;3.72;0.60;;;;;;;10.12;70.74;94644.38;2079883;28;20203;-63
2023/03/14 08:02:50;;;;;;;5.95;0.60;;;;;;;10.39;69.45;94660.72;2094845;28;20259;-64
2023/03/14 08:03:52;;;;;;;1.80;0.60;;;;;;;10.03;70.06;94647.66;2083395;28;20289;-64
2023/03/14 08:04:53;;;;;;;2.17;0.60;;;;;;;9.82;71.17;94657.06;2068288;28;20837;-64
2023/03/14 08:05:55;;;;;;;1.35;0.57;;;;;;;9.68;71.62;94638.06;2068186;28;20205;-64
2023/03/14 08:06:56;;;;;;;1.00;0.60;;;;;;;9.62;72.34;94652.38;2065013;28;20681;-64
2023/03/14 08:07:58;;;;;;;2.60;0.60;;;;;;;9.52;72.72;94659.16;2065370;28;20221;-64
2023/03/14 08:08:59;;;;;;;1.77;0.60;;;;;;;9.47;72.51;94636.06;2078423;28;20229;-65
2023/03/14 08:10:01;;;;;;;1.63;0.73;;;;;;;9.45;73.24;94639.72;2076947;28;20211;-65
2023/03/14 08:11:04;;;;;;;0.98;0.55;;;;;;;9.47;72.32;94641.28;2079693;28;20212;-65
2023/03/14 08:12:06;;;;;;;3.80;0.70;;;;;;;9.76;70.96;94632.28;2079437;28;20201;-64
2023/03/14 08:13:10;;;;;;;5.22;0.60;;;;;;;9.94;70.86;94650.94;2087009;28;20243;-64
2023/03/14 08:14:11;;;;;;;3.75;0.60;;;;;;;9.86;71.35;94648.91;2096379;28;20563;-64
2023/03/14 08:15:13;;;;;;;4.38;0.80;;;;;;;10.05;69.75;94655.38;2095633;28;20204;-64
2023/03/14 08:16:14;;;;;;;6.45;0.70;;;;;;;10.35;69.10;94640.97;2096487;28;20220;-65
2023/03/14 08:17:16;;;;;;;1.42;0.70;;;;;;;10.33;68.39;94655.91;2096714;28;20217;-64
2023/03/14 08:18:17;;;;;;;2.95;0.50;;;;;;;10.26;68.49;94652.94;2097467;28;20878;-64
2023/03/14 08:19:18;;;;;;;1.30;0.60;;;;;;;10.54;68.11;94677.81;2096140;28;20191;-64
2023/03/14 08:20:22;;;;;;;1.17;0.50;;;;;;;11.24;66.01;94669.88;2095171;28;20200;-64
2023/03/14 08:21:23;;;;;;;1.33;0.50;;;;;;;11.75;63.86;94655.38;2095897;28;20196;-63
2023/03/14 08:22:24;;;;;;;2.45;0.60;;;;;;;12.05;63.96;94657.31;2095208;28;20552;-64
2023/03/14 08:23:26;;;;;;;2.30;0.90;;;;;;;12.44;62.72;94659.34;2093955;28;20311;-64
2023/03/14 08:24:27;;;;;;;1.95;0.70;;;;;;;12.77;61.58;94657.47;2093462;28;20202;-64
2023/03/14 08:25:29;;;;;;;2.92;0.75;;;;;;;12.57;61.00;94653.94;2092281;28;20226;-64
2023/03/14 08:26:31;;;;;;;1.30;0.70;;;;;;;12.15;62.26;94649.53;2090809;28;21078;-65
2023/03/14 08:27:32;;;;;;;2.95;0.70;;;;;;;11.58;64.09;94654.13;2089134;28;20197;-65
2023/03/14 08:28:34;;;;;;;2.10;0.60;;;;;;;11.47;64.64;94673.28;2089617;28;20249;-64
2023/03/14 08:29:35;;;;;;;1.38;0.52;;;;;;;11.23;65.72;94658.56;2091266;28;20550;-64
2023/03/14 08:30:36;;;;;;;1.38;0.60;;;;;;;11.45;65.45;94677.78;2089602;28;20209;-64
2023/03/14 08:31:38;;;;;;;2.75;0.90;;;;;;;11.11;65.77;94672.63;2093182;28;20692;-64
2023/03/14 08:32:40;;;;;;;3.40;0.70;;;;;;;10.82;66.78;94661.81;2089312;28;20198;-64
2023/03/14 08:33:41;;;;;;;2.95;0.70;;;;;;;10.76;67.39;94657.91;2090470;28;20315;-65
2023/03/14 08:34:43;;;;;;;3.03;0.77;;;;;;;10.65;68.31;94663.94;2090673;28;20254;-64
2023/03/14 08:35:44;;;;;;;1.30;0.70;;;;;;;10.39;68.12;94671.16;2097490;28;20242;-64
2023/03/14 08:36:45;;;;;;;1.48;0.60;;;;;;;10.12;68.93;94649.59;2097190;28;20288;-64
2023/03/14 08:37:47;;;;;;;2.33;0.73;;;;;;;10.20;68.91;94675.09;2089470;28;20192;-64
2023/03/14 08:38:48;;;;;;;2.85;0.65;;;;;;;10.30;69.12;94667.41;2088653;28;20279;-64
2023/03/14 08:39:51;;;;;;;1.85;0.70;;;;;;;10.14;69.67;94688.59;2085623;28;20197;-64
2023/03/14 08:40:57;;;;;;;1.05;0.60;;;;;;;9.98;70.03;94665.44;2092630;28;20194;-64
2023/03/14 08:41:59;;;;;;;2.55;0.60;;;;;;;9.82;70.28;94677.94;2087256;28;20255;-64
2023/03/14 08:43:00;;;;;;;2.08;0.73;;;;;;;9.72;71.47;94675.16;2087665;28;20287;-64
2023/03/14 08:44:02;;;;;;;1.20;0.60;;;;;;;9.62;71.71;94677.59;2088703;28;20193;-64
2023/03/14 08:45:04;;;;;;;2.58;0.70;;;;;;;9.48;71.81;94673.38;2089751;28;20207;-64
2023/03/14 08:46:05;;;;;;;2.58;0.70;;;;;;;9.43;72.55;94694.56;2089879;28;20199;-64
2023/03/14 08:47:07;;;;;;;2.10;1.00;;;;;;;9.34;72.88;94671.75;2089937;28;20212;-61
2023/03/14 08:48:08;;;;;;;9.10;3.33;;;;;;;9.34;73.07;94681.34;2087047;28;20193;-64
2023/03/14 08:49:10;;;;;;;3.38;1.63;;;;;;;9.22;73.49;94659.59;2088952;28;20666;-64
2023/03/14 08:50:12;;;;;;;2.17;0.85;;;;;;;9.29;73.72;94669.50;2088926;28;20817;-64
2023/03/14 08:51:17;;;;;;;3.38;0.60;;;;;;;9.24;73.31;94682.00;2089301;28;20196;-63
2023/03/14 08:52:19;;;;;;;2.45;0.70;;;;;;;9.15;73.25;94660.03;2088836;28;20629;-63
2023/03/14 08:53:22;;;;;;;2.08;0.60;;;;;;;9.20;73.80;94687.53;2088540;28;20748;-63
2023/03/14 08:54:23;;;;;;;1.83;0.70;;;;;;;9.22;74.20;94673.47;2089378;28;20216;-63
2023/03/14 08:55:27;;;;;;;3.45;0.75;;;;;;;9.12;74.36;94670.66;2089342;28;20199;-64
2023/03/14 08:56:28;;;;;;;2.88;1.00;;;;;;;9.08;75.30;94677.03;2090175;28;20196;-63
2023/03/14 08:57:29;;;;;;;1.38;0.60;;;;;;;9.06;76.48;94684.09;2091051;28;20207;-63
2023/03/14 08:58:31;;;;;;;1.63;0.80;;;;;;;9.01;77.11;94686.19;2090137;28;20220;-63
2023/03/14 08:59:33;;;;;;;5.15;0.80;;;;;;;8.99;77.00;94688.09;2090741;28;20610;-63
2023/03/14 09:00:35;;;;;;;2.45;0.80;;;;;;;8.96;77.08;94683.94;2089651;28;20635;-64
2023/03/14 09:01:36;;;;;;;1.00;0.50;;;;;;;8.99;76.38;94688.91;2090101;28;20769;-63
2023/03/14 09:02:38;;;;;;;2.45;0.68;;;;;;;8.96;76.36;94690.91;2088955;28;20211;-63
2023/03/14 09:03:39;;;;;;;2.55;0.60;;;;;;;8.92;76.68;94692.88;2087228;28;20223;-64
2023/03/14 09:04:40;;;;;;;2.15;0.70;;;;;;;8.97;76.82;94695.16;2090043;28;20265;-63
2023/03/14 09:05:42;;;;;;;1.95;0.60;;;;;;;8.96;77.04;94691.75;2090681;28;20216;-63
2023/03/14 09:06:43;;;;;;;2.22;0.82;;;;;;;8.99;77.40;94704.53;2088176;28;20843;-63
2023/03/14 09:07:45;;;;;;;4.18;0.70;;;;;;;9.00;77.72;94707.97;2090604;28;20556;-63
2023/03/14 09:08:47;;;;;;;1.58;0.70;;;;;;;8.89;77.24;94687.91;2088896;28;20700;-64
2023/03/14 09:09:48;;;;;;;4.00;0.80;;;;;;;8.87;77.70;94707.16;2089397;28;20303;-64
2023/03/14 09:10:50;;;;;;;1.55;0.70;;;;;;;8.83;78.15;94709.13;2089831;28;20199;-63
2023/03/14 09:11:51;;;;;;;2.72;0.68;;;;;;;8.81;77.98;94705.78;2089366;28;20196;-63
2023/03/14 09:12:52;;;;;;;2.10;0.98;;;;;;;8.86;78.53;94708.09;2091251;28;20236;-63
2023/03/14 09:22:35;;;;;;;0.90;0.50;;;;;;;9.06;77.02;94717.13;2083964;28;20564;-63
2023/03/14 09:23:37;;;;;;;1.38;0.60;;;;;;;9.12;76.27;94699.31;2076757;28;20224;-63
2023/03/14 09:24:40;;;;;;;2.10;0.68;;;;;;;9.13;76.03;94703.56;2071255;28;20201;-63
2023/03/14 09:25:41;;;;;;;3.50;0.60;;;;;;;9.32;76.00;94721.34;2064755;28;20206;-63
2023/03/14 09:26:43;;;;;;;1.70;0.70;;;;;;;9.38;75.87;94721.84;2060633;28;20241;-63
2023/03/14 09:27:44;;;;;;;1.42;0.50;;;;;;;9.28;75.55;94729.47;2060348;28;20262;-63
2023/03/14 09:28:46;;;;;;;1.48;0.50;;;;;;;9.23;76.28;94728.97;2061967;28;20261;-63
2023/03/14 09:29:47;;;;;;;1.95;0.60;;;;;;;9.32;76.95;94725.75;2062215;28;20226;-63
2023/03/14 09:30:49;;;;;;;2.92;0.60;;;;;;;9.20;76.20;94718.78;2062251;28;20203;-64
2023/03/14 09:31:51;;;;;;;1.85;0.70;;;;;;;9.20;77.00;94730.00;2062928;28;20618;-63
2023/03/14 09:32:52;;;;;;;1.38;0.50;;;;;;;9.31;77.03;94730.09;2059839;28;20256;-63
2023/03/14 09:33:54;;;;;;;6.65;0.70;;;;;;;9.29;77.19;94732.00;2064602;28;20226;-63
2023/03/14 09:34:55;;;;;;;1.33;0.57;;;;;;;9.29;77.30;94738.97;2063718;28;20193;-63
2023/03/14 09:35:59;;;;;;;1.10;0.70;;;;;;;9.19;77.39;94730.13;2064099;28;20208;-63
2023/03/14 09:37:01;;;;;;;2.13;0.60;;;;;;;9.21;77.70;94744.69;2063316;28;20197;-63
2023/03/14 09:38:02;;;;;;;2.42;0.60;;;;;;;8.91;78.11;94719.88;2048702;28;20281;-62
2023/03/14 09:39:04;;;;;;;1.83;0.70;;;;;;;8.93;78.51;94731.00;2057269;28;20628;-61
2023/03/14 09:40:10;;;;;;;1.10;0.55;;;;;;;8.97;78.97;94737.63;2062978;28;20221;-61
2023/03/14 09:41:26;;;;;;;0.90;0.50;;;;;;;8.94;79.30;94744.84;2062524;28;20698;-61
2023/03/14 09:42:27;;;;;;;1.00;0.50;;;;;;;8.90;79.49;94739.03;2061028;28;20225;-62
2023/03/14 09:43:33;;;;;;;4.13;0.90;;;;;;;9.07;79.58;94742.25;2062781;28;20221;-61
2023/03/14 09:44:39;;;;;;;4.32;0.60;;;;;;;9.15;79.62;94745.13;2060779;28;20201;-62
2023/03/14 09:45:45;;;;;;;2.88;0.60;;;;;;;9.12;79.27;94759.19;2061109;28;20210;-62
2023/03/14 09:46:51;;;;;;;0.80;0.50;;;;;;;9.11;79.38;94747.09;2066290;28;20269;-63
2023/03/14 09:47:55;;;;;;;6.80;0.70;;;;;;;9.17;78.86;94752.81;2066050;28;20210;-61
2023/03/14 09:49:01;;;;;;;0.90;0.50;;;;;;;9.13;79.46;94750.44;2063472;28;20223;-62
2023/03/14 09:50:03;;;;;;;0.90;0.50;;;;;;;9.24;79.12;94751.47;2062408;28;20210;-62
2023/03/14 09:51:12;;;;;;;1.27;0.60;;;;;;;9.46;78.48;94725.59;2057446;28;20801;-63
2023/03/14 09:52:23;;;;;;;1.00;0.50;;;;;;;10.58;74.37;94754.91;2059471;28;20785;-63
2023/03/14 09:53:32;;;;;;;1.48;0.70;;;;;;;10.72;73.32;94745.22;2064932;28;20689;-61
2023/03/14 09:54:42;;;;;;;0.90;0.50;;;;;;;10.91;72.06;94753.31;2059934;28;20658;-61
2023/03/14 09:55:46;;;;;;;3.78;1.60;;;;;;;10.91;71.92;94748.09;2060799;28;20532;-62
2023/03/14 09:56:48;;;;;;;1.20;0.68;;;;;;;11.62;70.46;94738.34;2062491;28;20203;-62
2023/03/14 09:57:56;;;;;;;1.30;0.70;;;;;;;12.03;68.70;94745.53;2060077;28;20210;-62
2023/03/14 09:59:00;;;;;;;1.55;0.68;;;;;;;11.22;69.36;94743.16;2057696;28;20720;-62
2023/03/14 10:00:13;;;;;;;1.65;0.70;;;;;;;11.86;68.16;94749.47;2064601;28;20566;-62
2023/03/14 10:01:20;;;;;;;1.75;0.60;;;;;;;12.35;67.19;94746.47;2063014;28;20551;-62
2023/03/14 10:02:24;;;;;;;1.08;0.50;;;;;;;12.87;65.04;94741.31;2060956;28;20265;-62
2023/03/14 10:03:33;;;;;;;1.98;0.60;;;;;;;12.69;64.90;94728.00;2059590;28;20230;-63
2023/03/14 10:04:35;;;;;;;2.55;0.85;;;;;;;12.51;64.61;94732.97;2061837;28;20586;-62
2023/03/14 10:05:38;;;;;;;0.90;0.50;;;;;;;11.54;67.26;94728.50;2064641;28;20814;-62
2023/03/14 10:06:39;;;;;;;1.52;0.50;;;;;;;11.46;67.55;94702.97;2064519;28;20538;-62
2023/03/14 10:07:41;;;;;;;1.20;0.60;;;;;;;11.77;68.30;94734.53;2061895;28;20210;-63
2023/03/14 10:08:44;;;;;;;2.17;0.63;;;;;;;11.90;67.30;94737.81;2062059;28;20226;-63
2023/03/14 10:09:49;;;;;;;2.65;0.60;;;;;;;11.48;68.26;94737.66;2061558;28;20266;-63
2023/03/14 10:10:51;;;;;;;0.90;0.52;;;;;;;11.06;69.70;94738.25;2061328;28;20573;-65
2023/03/14 10:11:59;;;;;;;1.00;0.60;;;;;;;10.72;70.16;94735.59;2061393;28;20215;-63
2023/03/14 10:13:09;;;;;;;1.52;0.50;;;;;;;10.22;71.43;94728.00;2058379;28;20703;-63
2023/03/14 10:14:16;;;;;;;1.23;0.60;;;;;;;9.99;72.26;94723.63;2059816;28;20206;-62
2023/03/14 10:15:31;;;;;;;0.90;0.50;;;;;;;9.73;73.97;94744.59;2066282;28;20199;-62
2023/03/14 10:16:44;;;;;;;0.90;0.47;;;;;;;9.59;75.26;94735.16;2065441;28;20198;-62
2023/03/14 10:17:49;;;;;;;1.50;0.50;;;;;;;9.43;77.05;94735.38;2059364;28;20208;-62
2023/03/14 10:18:51;;;;;;;2.20;0.60;;;;;;;9.27;78.48;94736.47;2063341;28;20233;-63
2023/03/14 10:20:00;;;;;;;1.15;0.57;;;;;;;9.17;79.84;94740.66;2062471;28;20198;-63
2023/03/14 10:21:28;;;;;;;0.90;0.50;;;;;;;9.09;80.30;94746.41;2063800;28;20768;-62
2023/03/14 10:22:31;;;;;;;2.00;0.80;;;;;;;9.14;80.74;94759.09;2058249;28;20270;-63
2023/03/14 10:23:34;;;;;;;0.90;0.50;;;;;;;9.07;79.48;94739.63;2061573;28;20237;-63
2023/03/14 10:24:36;;;;;;;1.30;0.70;;;;;;;9.14;80.46;94746.91;2061907;28;20233;-62
2023/03/14 10:25:39;;;;;;;0.95;0.50;;;;;;;9.40;80.68;94751.25;2077855;28;20198;-62
2023/03/14 10:26:41;;;;;;;1.10;0.60;;;;;;;9.73;79.25;94747.19;2077884;28;20243;-62
2023/03/14 10:27:42;;;;;;;3.53;0.60;;;;;;;9.78;79.69;94752.91;2064589;28;20227;-62
2023/03/14 10:28:48;;;;;;;3.83;0.90;;;;;;;9.50;78.06;94749.66;2061464;28;20225;-61
2023/03/14 10:29:55;;;;;;;0.90;0.57;;;;;;;9.44;77.84;94737.88;2061944;28;20203;-61
2023/03/14 10:31:00;;;;;;;1.00;0.50;;;;;;;9.34;77.96;94736.88;2062101;28;20205;-61
2023/03/14 10:32:09;;;;;;;1.33;0.80;;;;;;;9.27;79.15;94746.06;2061686;28;20567;-64
2023/03/14 10:33:17;;;;;;;1.92;0.90;;;;;;;9.15;78.66;94748.59;2061343;28;20241;-63
2023/03/14 10:34:24;;;;;;;3.92;2.55;;;;;;;9.03;78.19;94746.81;2056329;28;20703;-63
2023/03/14 10:35:26;;;;;;;1.60;0.77;;;;;;;9.09;78.46;94748.16;2057952;28;20646;-61
2023/03/14 10:36:32;;;;;;;1.40;0.60;;;;;;;9.03;78.54;94751.16;2055693;28;20199;-62
2023/03/14 10:37:35;;;;;;;1.27;0.50;;;;;;;8.94;79.44;94758.69;2059075;28;20262;-62
2023/03/14 10:38:36;;;;;;;1.25;0.60;;;;;;;8.86;79.90;94762.75;2056921;28;20252;-62
2023/03/14 10:39:50;;;;;;;3.83;0.50;;;;;;;8.80;80.28;94757.03;2054426;28;20307;-61
2023/03/14 10:40:53;;;;;;;1.00;0.50;;;;;;;8.74;80.39;94762.63;2055513;28;20207;-62
2023/03/14 10:42:03;;;;;;;1.00;0.52;;;;;;;8.73;81.85;94758.38;2058468;28;20206;-62
2023/03/14 10:43:13;;;;;;;1.00;0.60;;;;;;;8.75;82.49;94764.31;2065916;28;20226;-62
2023/03/14 10:44:18;;;;;;;1.00;0.50;;;;;;;8.71;81.98;94767.22;2060560;28;20648;-62
2023/03/14 10:45:32;;;;;;;2.45;0.70;;;;;;;8.66;82.70;94783.16;2054936;28;20568;-62
2023/03/14 10:46:33;;;;;;;1.00;0.50;;;;;;;8.61;82.79;94769.63;2056018;28;20208;-62
2023/03/14 10:47:35;;;;;;;0.90;0.50;;;;;;;8.62;83.03;94771.25;2059378;28;20206;-62
2023/03/14 10:48:39;;;;;;;2.20;0.70;;;;;;;8.53;83.26;94764.91;2056972;28;20604;-62
2023/03/14 10:49:40;;;;;;;0.90;0.50;;;;;;;8.51;82.98;94772.00;2056020;28;20246;-62
2023/03/14 11:48:58;;;;;;;1.30;0.95;;;;;;;8.21;88.71;94827.63;2088165;28;20568;-63
2023/03/14 11:50:12;;;;;;;1.20;0.70;;;;;;;8.26;87.69;94841.16;2082058;28;20203;-63
2023/03/14 12:08:24;;;;;;;2.95;0.60;;;;;;;7.74;90.09;94901.63;2090894;28;20599;-65
2023/03/14 12:09:25;;;;;;;2.75;0.80;;;;;;;7.97;89.03;94914.06;2074515;28;20213;-65
2023/03/14 12:10:27;;;;;;;1.40;0.80;;;;;;;8.09;87.31;94904.66;2075414;28;20324;-65
2023/03/14 12:11:38;;;;;;;1.25;0.70;;;;;;;7.96;85.33;94912.38;2074526;28;20285;-65
2023/03/14 12:12:39;;;;;;;1.15;0.68;;;;;;;7.95;86.24;94925.47;2076436;28;20225;-64
2023/03/14 12:13:47;;;;;;;1.10;0.60;;;;;;;7.79;84.53;94928.16;2073953;28;20217;-65
2023/03/14 12:14:57;;;;;;;3.00;0.75;;;;;;;7.88;86.14;94924.19;2074201;28;20233;-64
2023/03/14 12:16:03;;;;;;;1.08;0.70;;;;;;;7.89;86.04;94939.66;2075095;28;20203;-65
2023/03/14 12:17:17;;;;;;;1.27;0.70;;;;;;;7.79;86.24;94952.38;2074702;28;20295;-64
2023/03/14 12:18:29;;;;;;;1.00;0.70;;;;;;;7.68;87.02;94967.78;2073610;28;20201;-64
2023/03/14 12:19:34;;;;;;;1.10;0.63;;;;;;;7.47;84.76;94975.09;2075669;28;20290;-65
2023/03/14 12:20:38;;;;;;;1.10;0.70;;;;;;;7.12;83.28;94962.41;2066186;28;20199;-65
2023/03/14 12:21:50;;;;;;;3.47;0.90;;;;;;;7.02;81.35;94986.31;2064830;28;20195;-65
2023/03/14 12:22:56;;;;;;;1.00;0.70;;;;;;;7.08;81.27;94990.28;2073243;28;20205;-64
2023/03/14 12:23:58;;;;;;;2.05;0.98;;;;;;;7.78;79.42;95005.31;2073012;28;20259;-66
2023/03/14 12:25:04;;;;;;;1.10;0.70;;;;;;;8.05;76.19;95009.75;2074142;28;20418;-66
2023/03/14 12:26:19;;;;;;;5.53;0.90;;;;;;;8.21;75.66;95019.22;2075532;28;20205;-66
2023/03/14 12:28:08;;;;;;;1.55;0.77;;;;;;;8.32;75.33;95019.41;2077285;28;20615;-65
2023/03/14 12:29:16;;;;;;;2.45;0.88;;;;;;;8.87;74.27;95007.31;2066831;28;20225;-66
2023/03/14 12:30:36;;;;;;;1.30;0.80;;;;;;;9.13;70.99;95004.81;2072575;28;20193;-65
2023/03/14 12:31:43;;;;;;;1.33;0.70;;;;;;;9.18;68.93;95000.16;2072408;28;20614;-66
2023/03/14 12:33:17;;;;;;;1.10;0.73;;;;;;;9.35;67.54;95011.22;2073349;28;20651;-65
2023/03/14 12:34:18;;;;;;;2.15;0.77;;;;;;;9.40;66.96;95023.00;2075439;28;20280;-65
2023/03/14 12:35:51;;;;;;;4.93;1.05;;;;;;;9.35;67.30;95017.25;2075832;28;20308;-65
2023/03/14 12:37:10;;;;;;;4.15;1.02;;;;;;;10.07;66.77;95014.19;2075124;28;20206;-65
2023/03/14 12:38:29;;;;;;;3.25;0.80;;;;;;;9.52;63.75;95016.13;2075149;28;20620;-65
2023/03/14 12:39:39;;;;;;;2.03;0.80;;;;;;;9.47;64.39;95026.88;2075785;28;20200;-64
2023/03/14 12:41:14;;;;;;;2.67;1.00;;;;;;;9.74;61.71;94999.09;2075309;28;20232;-65
2023/03/14 12:42:30;;;;;;;7.03;1.33;;;;;;;10.13;64.25;94971.19;2075827;28;20202;-65
2023/03/14 12:43:45;;;;;;;1.80;1.00;;;;;;;9.97;63.14;95015.78;2074321;28;20285;-65
2023/03/14 12:44:49;;;;;;;1.92;0.80;;;;;;;9.66;62.30;95020.44;2077458;28;20202;-65
2023/03/14 12:46:07;;;;;;;7.32;0.75;;;;;;;9.38;63.56;95029.25;2075876;28;20251;-65
2023/03/14 12:47:37;;;;;;;2.42;1.02;;;;;;;9.80;63.86;95030.78;2081208;28;20279;-65
2023/03/14 12:48:39;;;;;;;1.55;0.75;;;;;;;9.41;62.13;95024.69;2078104;28;20240;-64
2023/03/14 12:49:41;;;;;;;2.97;0.70;;;;;;;9.29;61.83;95033.28;2077656;28;20197;-65
2023/03/14 12:50:44;;;;;;;2.70;0.70;;;;;;;8.98;62.54;95028.28;2076820;28;20198;-65
2023/03/14 12:51:45;;;;;;;3.25;0.80;;;;;;;8.44;65.65;95025.59;2075305;28;20225;-65
2023/03/14 12:53:31;;;;;;;2.00;0.70;;;;;;;8.73;66.01;95033.41;2075109;28;20197;-64
2023/03/14 12:54:33;;;;;;;2.05;0.80;;;;;;;9.35;64.35;95037.28;2075905;28;20233;-65
2023/03/14 12:55:47;;;;;;;3.25;0.80;;;;;;;8.99;63.18;95039.56;2079700;28;20200;-65
2023/03/14 12:57:19;;;;;;;5.30;1.00;;;;;;;9.25;63.95;95043.06;2078185;28;20592;-65
2023/03/14 12:58:43;;;;;;;3.20;1.20;;;;;;;8.98;65.16;95049.13;2076013;28;20226;-65
2023/03/14 12:59:50;;;;;;;3.80;1.00;;;;;;;8.85;61.61;95056.06;2077756;28;20674;-66
2023/03/14 13:00:59;;;;;;;1.58;0.85;;;;;;;8.28;63.08;95060.38;2078653;28;20208;-65
2023/03/14 13:02:07;;;;;;;4.95;1.20;;;;;;;8.31;63.65;95056.75;2076937;28;20258;-65
2023/03/14 13:03:15;;;;;;;1.65;0.98;;;;;;;8.68;61.99;95077.09;2073692;28;20271;-65
2023/03/14 13:04:16;;;;;;;3.80;0.70;;;;;;;8.45;61.98;95050.69;2076279;28;20201;-65
2023/03/14 13:05:26;;;;;;;4.10;0.85;;;;;;;8.89;61.84;95069.69;2074843;28;20193;-65
2023/03/14 13:06:51;;;;;;;4.85;0.80;;;;;;;8.39;61.97;95077.06;2074945;28;20208;-63
2023/03/14 13:07:55;;;;;;;5.00;0.80;;;;;;;8.81;61.80;95077.97;2076079;28;20739;-63
2023/03/14 13:08:57;;;;;;;1.23;0.73;;;;;;;8.53;62.45;95073.66;2076563;28;20225;-63
2023/03/14 13:10:07;;;;;;;4.28;1.20;;;;;;;8.21;62.82;95097.25;2079186;28;20203;-63
2023/03/14 13:11:19;;;;;;;3.00;0.85;;;;;;;7.77;61.29;95088.53;2077577;28;20225;-64
2023/03/14 13:12:27;;;;;;;5.57;0.70;;;;;;;7.38;61.10;95074.31;2081173;28;20236;-64
2023/03/14 13:13:29;;;;;;;1.50;0.70;;;;;;;7.24;60.86;95104.50;2077968;28;20212;-63
2023/03/14 13:14:32;;;;;;;8.35;3.42;;;;;;;7.12;61.62;95090.47;2074346;28;20194;-64
2023/03/14 13:15:46;;;;;;;6.25;2.65;;;;;;;7.30;63.53;95103.31;2075737;28;20193;-62
2023/03/14 13:16:49;;;;;;;6.88;2.78;;;;;;;7.19;63.50;95099.56;2075542;28;20199;-64
2023/03/14 13:17:54;;;;;;;1.20;0.68;;;;;;;7.29;63.48;95102.47;2077073;28;20197;-64
2023/03/14 13:19:11;;;;;;;1.05;0.60;;;;;;;7.31;63.12;95102.38;2069131;28;20261;-63
2023/03/14 13:20:35;;;;;;;3.30;1.50;;;;;;;7.47;63.20;95108.41;2068604;28;20212;-63
2023/03/14 13:21:37;;;;;;;3.67;0.80;;;;;;;7.34;62.33;95107.44;2067626;28;20807;-64
2023/03/14 13:22:46;;;;;;;2.20;0.75;;;;;;;7.28;62.21;95115.56;2070507;28;20671;-63
2023/03/14 13:24:21;;;;;;;2.13;0.70;;;;;;;7.19;62.75;95129.88;2067833;28;20901;-63
2023/03/14 13:25:23;;;;;;;4.22;1.25;;;;;;;7.22;63.04;95114.13;2073166;28;20650;-63
2023/03/14 13:26:33;;;;;;;2.95;0.90;;;;;;;7.41;63.15;95136.47;2073704;28;20676;-63
2023/03/14 13:27:36;;;;;;;2.55;0.73;;;;;;;7.38;63.37;95134.03;2072393;28;20642;-63
2023/03/14 13:28:37;;;;;;;3.92;1.00;;;;;;;7.25;62.79;95146.88;2070474;28;20231;-63
2023/03/14 13:29:39;;;;;;;3.10;0.77;;;;;;;7.12;62.96;95144.97;2070096;28;20207;-63
2023/03/14 13:30:43;;;;;;;5.63;0.70;;;;;;;7.10;62.63;95157.19;2071551;28;20195;-63
2023/03/14 13:31:46;;;;;;;2.95;0.70;;;;;;;7.11;61.97;95148.47;2072614;28;20196;-63
2023/03/14 13:32:49;;;;;;;1.35;0.60;;;;;;;7.09;60.80;95165.06;2072275;28;20235;-63
2023/03/14 13:34:11;;;;;;;2.28;0.70;;;;;;;7.23;61.08;95175.53;2070134;28;20557;-64
2023/03/14 13:35:17;;;;;;;2.17;1.08;;;;;;;7.22;61.51;95189.41;2070893;28;20290;-63
2023/03/14 13:36:21;;;;;;;1.88;0.70;;;;;;;7.09;60.39;95178.88;2072272;28;20198;-63
2023/03/14 13:37:25;;;;;;;3.17;0.90;;;;;;;7.10;60.49;95188.34;2072064;28;20208;-64
2023/03/14 13:38:30;;;;;;;5.35;1.45;;;;;;;7.03;58.79;95195.63;2072661;28;20216;-64
2023/03/14 13:39:32;;;;;;;2.17;0.60;;;;;;;6.94;58.97;95193.50;2074806;28;20279;-64
2023/03/14 13:40:35;;;;;;;4.97;0.80;;;;;;;7.01;59.54;95189.66;2070929;28;20599;-64
2023/03/14 13:41:36;;;;;;;5.68;0.90;;;;;;;6.96;59.67;95206.44;2069199;28;20202;-65
2023/03/14 13:42:38;;;;;;;1.23;0.80;;;;;;;6.93;59.61;95207.44;2069595;28;20195;-65
2023/03/14 13:43:41;;;;;;;1.20;0.60;;;;;;;6.90;59.37;95201.56;2069612;28;20619;-65
2023/03/14 13:44:43;;;;;;;2.55;0.70;;;;;;;6.92;59.34;95216.13;2071866;28;20272;-64